Time;durP1;ratioP1;P1;durP2;ratioP2;P2;SDS_P1;SDS_P2;PMS_P1;PMS_P2;Temp;Humidity;BMP_temperature;BMP_pressure;BME280_temperature;BME280_humidity;BME280_pressure;Samples;Min_cycle;Max_cycle;Signal;HPM_P1;HPM_P2
2023/06/15 00:00:10;;;;;;;16.23;15.27;;;15.70;99.90;;;;;;2622968;54;20940;-89
2023/06/15 00:05:58;;;;;;;16.00;14.77;;;15.50;99.90;;;;;;2620632;54;20387;-77
2023/06/15 00:11:46;;;;;;;16.07;14.97;;;15.40;99.90;;;;;;2614893;54;20687;-77
2023/06/15 00:14:51;;;;;;;16.03;14.90;;;15.30;99.90;;;;;;2614405;47;20432;-76
2023/06/15 00:17:17;;;;;;;15.20;14.30;;;15.20;99.90;;;;;;2613724;47;20810;-77
2023/06/15 00:23:06;;;;;;;16.20;15.10;;;15.20;99.90;;;;;;2612014;54;20419;-77
2023/06/15 00:28:58;;;;;;;15.73;14.80;;;15.10;99.90;;;;;;2614091;54;20830;-78
2023/06/15 00:34:46;;;;;;;15.00;14.10;;;15.00;99.90;;;;;;2615209;46;20154;-78
2023/06/15 00:40:37;;;;;;;14.73;13.87;;;14.80;99.90;;;;;;2612913;39;20638;-77
2023/06/15 00:46:25;;;;;;;15.87;14.97;;;14.70;99.90;;;;;;2611393;54;20403;-77
2023/06/15 00:52:16;;;;;;;15.43;14.43;;;14.70;99.90;;;;;;2611532;54;20130;-77
2023/06/15 00:58:04;;;;;;;14.90;14.00;;;14.70;99.90;;;;;;2611928;54;20384;-77
2023/06/15 01:03:57;;;;;;;15.37;14.37;;;14.60;99.90;;;;;;2614146;54;20150;-78
2023/06/15 01:09:45;;;;;;;15.20;14.10;;;14.40;99.90;;;;;;2612189;54;20412;-77
2023/06/15 01:19:34;;;;;;;14.73;13.60;;;14.10;99.90;;;;;;2627253;54;20407;-88
2023/06/15 01:29:05;;;;;;;15.10;14.20;;;14.00;99.90;;;;;;2627941;54;20520;-88
2023/06/15 01:31:31;;;;;;;14.30;13.30;;;14.00;99.90;;;;;;2618070;54;20984;-85
2023/06/15 01:37:19;;;;;;;14.60;13.60;;;14.10;99.90;;;;;;2618116;39;20582;-85
2023/06/15 01:43:12;;;;;;;14.73;13.57;;;14.00;99.90;;;;;;2617429;54;20157;-85
2023/06/15 01:49:01;;;;;;;15.47;14.17;;;14.10;99.90;;;;;;2617256;54;20418;-86
2023/06/15 01:54:49;;;;;;;15.17;14.17;;;13.90;99.90;;;;;;2612348;54;20391;-76
2023/06/15 02:00:37;;;;;;;14.10;13.30;;;13.80;99.90;;;;;;2616636;54;21047;-85
2023/06/15 02:06:25;;;;;;;13.83;12.93;;;13.50;99.90;;;;;;2617038;54;20166;-85
2023/06/15 02:12:13;;;;;;;13.93;13.03;;;13.60;99.90;;;;;;2616973;54;20179;-85
2023/06/15 02:14:57;;;;;;;13.67;12.87;;;13.70;99.90;;;;;;2617105;54;20427;-85
2023/06/15 02:17:30;;;;;;;14.47;13.50;;;13.80;99.90;;;;;;2615421;54;20159;-84
2023/06/15 02:23:18;;;;;;;14.53;13.30;;;13.60;99.90;;;;;;2618135;39;20783;-85
2023/06/15 02:29:05;;;;;;;14.00;13.10;;;13.70;99.90;;;;;;2620405;54;20127;-88
2023/06/15 02:34:56;;;;;;;14.97;13.70;;;13.70;99.90;;;;;;2622717;54;20127;-88
2023/06/15 02:40:43;;;;;;;14.30;13.20;;;13.50;99.90;;;;;;2623209;54;20391;-88
2023/06/15 02:46:31;;;;;;;14.67;13.40;;;13.30;99.90;;;;;;2614046;54;20130;-75
2023/06/15 02:52:20;;;;;;;14.67;13.67;;;13.20;99.90;;;;;;2623677;54;20131;-89
2023/06/15 02:58:07;;;;;;;13.53;12.53;;;13.30;99.90;;;;;;2623401;54;20960;-89
2023/06/15 03:03:55;;;;;;;14.77;13.67;;;13.40;99.90;;;;;;2623381;54;20146;-88
2023/06/15 03:09:46;;;;;;;15.03;13.93;;;13.20;99.90;;;;;;2622938;54;20122;-89
2023/06/15 03:19:24;;;;;;;13.73;12.53;;;13.20;99.90;;;;;;2625602;54;20406;-88
2023/06/15 03:25:13;;;;;;;12.93;11.93;;;13.30;99.90;;;;;;2624950;54;20426;-90
2023/06/15 03:31:05;;;;;;;15.97;14.67;;;13.30;99.90;;;;;;2624265;54;20407;-89
2023/06/15 03:36:53;;;;;;;14.97;13.83;;;13.30;99.90;;;;;;2623485;46;20430;-88
2023/06/15 03:42:41;;;;;;;13.90;13.00;;;13.50;99.90;;;;;;2621777;54;20433;-77
2023/06/15 03:48:29;;;;;;;13.87;12.87;;;13.50;99.90;;;;;;2617206;54;20415;-85
2023/06/15 03:54:19;;;;;;;15.17;13.87;;;13.50;99.90;;;;;;2618811;46;20400;-85
2023/06/15 04:00:07;;;;;;;15.20;13.90;;;13.50;99.90;;;;;;2618962;46;20502;-84
2023/06/15 04:05:55;;;;;;;15.23;14.03;;;13.50;99.90;;;;;;2618175;54;20415;-77
2023/06/15 04:11:43;;;;;;;15.30;14.20;;;13.90;99.90;;;;;;2612115;54;20122;-76
2023/06/15 04:17:39;;;;;;;17.07;15.77;;;14.00;99.90;;;;;;2610911;54;20270;-76
2023/06/15 04:23:27;;;;;;;15.30;14.20;;;14.10;99.90;;;;;;2612034;54;20130;-77
2023/06/15 04:29:18;;;;;;;15.70;14.50;;;14.20;99.90;;;;;;2611051;54;20183;-76
2023/06/15 04:35:06;;;;;;;14.93;13.93;;;14.30;99.90;;;;;;2613357;54;20363;-87
2023/06/15 04:40:54;;;;;;;15.93;14.53;;;14.70;99.90;;;;;;2620066;54;20936;-88
2023/06/15 04:46:42;;;;;;;18.47;17.07;;;15.20;99.90;;;;;;2621177;54;20379;-88
2023/06/15 04:52:30;;;;;;;15.77;14.73;;;15.60;99.90;;;;;;2620281;54;20395;-88
2023/06/15 04:58:18;;;;;;;15.63;14.33;;;16.30;99.90;;;;;;2623407;54;20130;-89
2023/06/15 05:04:06;;;;;;;17.10;15.60;;;16.90;99.90;;;;;;2624050;54;20122;-89
2023/06/15 05:09:54;;;;;;;17.27;15.87;;;17.00;99.90;;;;;;2624008;54;20200;-90
2023/06/15 05:19:26;;;;;;;18.10;16.77;;;17.50;99.90;;;;;;2623741;54;21008;-88
2023/06/15 05:25:14;;;;;;;20.60;19.17;;;18.20;99.90;;;;;;2618193;54;20515;-86
2023/06/15 05:31:02;;;;;;;20.27;18.80;;;18.70;99.90;;;;;;2619182;54;20167;-87
2023/06/15 05:36:50;;;;;;;20.17;18.57;;;18.10;99.90;;;;;;2618098;54;20394;-84
2023/06/15 05:42:38;;;;;;;21.30;19.80;;;18.60;99.90;;;;;;2618195;54;20149;-81
2023/06/15 05:48:26;;;;;;;21.90;20.20;;;18.80;99.90;;;;;;2617116;54;20430;-80
2023/06/15 05:54:14;;;;;;;20.57;18.97;;;19.30;99.90;;;;;;2617466;54;20406;-81
2023/06/15 06:00:06;;;;;;;21.00;19.60;;;19.80;99.90;;;;;;2616500;54;20327;-80
2023/06/15 06:05:53;;;;;;;22.17;20.67;;;20.00;99.90;;;;;;2607302;54;20403;-76
2023/06/15 06:11:41;;;;;;;25.20;22.87;;;20.10;99.90;;;;;;2614233;54;20126;-81
2023/06/15 06:14:56;;;;;;;24.20;22.00;;;20.30;94.30;;;;;;2613967;54;20540;-81
2023/06/15 06:17:22;;;;;;;24.73;22.60;;;20.10;94.40;;;;;;2613937;54;20174;-81
2023/06/15 06:23:10;;;;;;;25.20;22.90;;;21.30;91.70;;;;;;2615577;39;20550;-82
2023/06/15 06:28:58;;;;;;;23.47;21.67;;;21.60;64.30;;;;;;2613797;54;20183;-77
2023/06/15 06:34:46;;;;;;;23.60;21.80;;;22.50;53.00;;;;;;2614308;54;20395;-76
2023/06/15 06:40:35;;;;;;;24.10;22.13;;;22.20;56.60;;;;;;2614497;54;20423;-77
2023/06/15 06:46:23;;;;;;;22.33;21.00;;;22.60;53.10;;;;;;2612945;54;20387;-76
2023/06/15 06:52:11;;;;;;;23.20;21.80;;;23.00;46.70;;;;;;2614176;54;20150;-76
2023/06/15 06:58:00;;;;;;;23.80;22.20;;;22.50;42.90;;;;;;2619015;54;20204;-86
2023/06/15 07:03:47;;;;;;;24.77;23.23;;;23.10;36.00;;;;;;2620880;54;20406;-86
2023/06/15 07:09:35;;;;;;;23.30;21.50;;;23.80;31.40;;;;;;2620996;31;20624;-87
2023/06/15 07:19:23;;;;;;;21.80;20.33;;;24.10;25.20;;;;;;2619526;54;20375;-87
2023/06/15 07:25:11;;;;;;;20.33;19.10;;;24.30;22.20;;;;;;2616873;54;20411;-82
2023/06/15 07:30:59;;;;;;;19.53;18.27;;;24.20;18.00;;;;;;2615708;54;20146;-81
2023/06/15 07:36:47;;;;;;;19.50;18.30;;;25.40;10.00;;;;;;2614122;54;20966;-78
2023/06/15 07:42:34;;;;;;;19.50;18.30;;;24.70;10.20;;;;;;2615505;31;20659;-76
2023/06/15 07:48:23;;;;;;;18.27;17.10;;;25.10;7.70;;;;;;2617227;54;20129;-86
2023/06/15 07:54:11;;;;;;;20.47;19.27;;;25.70;7.20;;;;;;2618591;54;20262;-86
2023/06/15 08:00:01;;;;;;;18.93;17.93;;;25.80;10.10;;;;;;2615536;54;20519;-77
2023/06/15 08:05:48;;;;;;;18.30;17.10;;;26.40;6.20;;;;;;2613843;54;20403;-77
2023/06/15 08:11:36;;;;;;;17.97;17.03;;;26.00;1.00;;;;;;2615423;54;20202;-85
2023/06/15 08:14:56;;;;;;;19.07;17.97;;;26.40;1.00;;;;;;2618528;54;20431;-84
2023/06/15 08:17:25;;;;;;;19.47;18.57;;;26.80;1.00;;;;;;2618471;54;20172;-85
2023/06/15 08:23:13;;;;;;;20.07;18.87;;;25.90;4.70;;;;;;2618462;54;20412;-86
2023/06/15 08:29:02;;;;;;;18.37;17.47;;;27.00;1.00;;;;;;2620847;54;20146;-85
2023/06/15 08:34:52;;;;;;;19.37;18.30;;;27.00;1.00;;;;;;2619212;54;20438;-86
2023/06/15 08:40:39;;;;;;;19.37;18.37;;;25.90;1.00;;;;;;2617741;54;20419;-84
2023/06/15 08:46:27;;;;;;;18.60;17.80;;;26.90;1.00;;;;;;2617506;54;20207;-86
2023/06/15 08:52:17;;;;;;;19.83;18.63;;;26.90;1.00;;;;;;2627471;54;20459;-87
2023/06/15 08:58:05;;;;;;;18.97;18.00;;;26.40;1.00;;;;;;2627725;54;20387;-87
2023/06/15 09:03:55;;;;;;;19.80;18.13;;;27.20;1.00;;;;;;2613751;54;20394;-75
2023/06/15 09:10:11;;;;;;;17.90;16.40;;;27.10;1.00;;;;;;2618431;54;20546;-77
2023/06/15 09:26:01;;;;;;;17.60;16.60;;;27.70;1.00;;;;;;2614922;54;20364;-75
2023/06/15 09:31:49;;;;;;;18.03;17.13;;;28.60;1.00;;;;;;2614500;54;20131;-76
2023/06/15 09:37:37;;;;;;;17.67;16.87;;;28.90;1.00;;;;;;2621087;39;20735;-88
2023/06/15 09:49:56;;;;;;;19.33;18.33;;;28.40;1.00;;;;;;2624821;54;20419;-85
2023/06/15 09:55:45;;;;;;;18.13;17.13;;;28.10;1.00;;;;;;2609793;54;20400;-76
2023/06/15 10:01:36;;;;;;;19.83;18.37;;;27.00;1.00;;;;;;2611725;54;20945;-74
2023/06/15 10:07:24;;;;;;;17.43;16.13;;;28.80;1.00;;;;;;2609167;54;20440;-76
2023/06/15 10:13:20;;;;;;;18.60;17.70;;;29.30;1.00;;;;;;2609849;54;20420;-76
2023/06/15 10:19:12;;;;;;;19.40;18.23;;;28.80;1.00;;;;;;2610719;54;20371;-76
2023/06/15 10:25:00;;;;;;;17.50;16.60;;;29.40;1.00;;;;;;2611716;54;20447;-75
2023/06/15 10:30:52;;;;;;;18.50;17.57;;;29.30;1.00;;;;;;2611753;54;20929;-76
2023/06/15 10:43:02;;;;;;;18.47;17.57;;;28.10;1.00;;;;;;2611161;54;20427;-76
2023/06/15 10:48:53;;;;;;;18.00;16.70;;;28.50;1.00;;;;;;2610247;39;20744;-75
2023/06/15 10:54:41;;;;;;;19.53;18.40;;;29.40;1.00;;;;;;2608483;54;20435;-75
2023/06/15 11:00:28;;;;;;;19.30;18.30;;;28.80;1.00;;;;;;2613602;54;20543;-75
2023/06/15 11:06:19;;;;;;;18.37;17.47;;;29.80;1.00;;;;;;2613017;54;20150;-84
2023/06/15 11:12:35;;;;;;;17.47;16.57;;;27.60;1.00;;;;;;2615162;54;20403;-84
2023/06/15 11:22:05;;;;;;;17.10;16.30;;;29.50;1.00;;;;;;2613340;54;20940;-85
2023/06/15 11:27:55;;;;;;;17.40;16.60;;;29.50;1.00;;;;;;2613614;54;20391;-84
2023/06/15 11:33:42;;;;;;;18.57;17.47;;;27.80;1.00;;;;;;2612054;54;20403;-75
2023/06/15 11:39:31;;;;;;;17.97;16.77;;;28.90;1.00;;;;;;2612188;39;20589;-75
2023/06/15 11:45:21;;;;;;;17.73;16.50;;;29.50;1.00;;;;;;2610974;54;20948;-75
2023/06/15 11:51:10;;;;;;;17.93;17.03;;;28.80;1.00;;;;;;2610870;54;20415;-75
2023/06/15 11:56:57;;;;;;;18.03;17.23;;;29.10;1.00;;;;;;2610896;54;20368;-76
2023/06/15 12:02:47;;;;;;;17.53;16.73;;;29.90;1.00;;;;;;2614703;54;20119;-75
2023/06/15 12:08:35;;;;;;;19.50;18.60;;;29.50;1.00;;;;;;2614721;54;20394;-75
2023/06/15 12:14:24;;;;;;;18.77;17.87;;;28.70;1.00;;;;;;2614818;54;20407;-75
2023/06/15 12:23:35;;;;;;;18.07;17.27;;;30.00;1.00;;;;;;2615214;54;20435;-82
2023/06/15 12:29:25;;;;;;;19.07;18.20;;;30.20;1.00;;;;;;2614653;54;20415;-81
2023/06/15 12:32:29;;;;;;;19.47;18.63;;;29.80;1.00;;;;;;2616303;54;20408;-83
2023/06/15 12:34:55;;;;;;;17.80;16.90;;;29.70;1.00;;;;;;2615559;47;21047;-83
2023/06/15 12:40:44;;;;;;;18.87;18.07;;;29.90;1.00;;;;;;2616480;54;21020;-81
2023/06/15 12:46:35;;;;;;;17.87;17.17;;;30.10;1.00;;;;;;2616536;54;20391;-82
2023/06/15 12:52:23;;;;;;;17.77;16.97;;;29.80;1.00;;;;;;2614839;54;20453;-76
2023/06/15 12:58:12;;;;;;;16.20;15.50;;;30.00;1.00;;;;;;2617522;54;20656;-83
2023/06/15 13:04:02;;;;;;;18.47;17.47;;;28.80;1.00;;;;;;2616821;54;20423;-83
2023/06/15 13:09:50;;;;;;;19.87;18.67;;;28.90;1.00;;;;;;2616409;54;20427;-81
2023/06/15 13:15:38;;;;;;;18.27;16.90;;;29.30;1.00;;;;;;2617034;54;20403;-83
2023/06/15 13:18:59;;;;;;;17.43;16.43;;;30.10;1.00;;;;;;2614138;51;20507;-84
2023/06/15 13:21:25;;;;;;;17.50;16.50;;;29.60;1.00;;;;;;2614626;39;20596;-83
2023/06/15 13:27:13;;;;;;;17.60;16.80;;;30.00;1.00;;;;;;2616444;54;20138;-83
2023/06/15 13:30:16;;;;;;;18.33;17.53;;;30.70;1.00;;;;;;2614274;54;20443;-81
2023/06/15 13:32:45;;;;;;;17.80;17.00;;;30.50;1.00;;;;;;2611040;54;20273;-82
2023/06/15 13:38:33;;;;;;;18.20;17.20;;;30.00;1.00;;;;;;2615900;54;20420;-82
2023/06/15 13:44:21;;;;;;;17.70;16.90;;;27.80;1.00;;;;;;2616677;54;20753;-82
2023/06/15 13:50:13;;;;;;;16.50;15.60;;;28.30;1.00;;;;;;2616247;54;20161;-82
2023/06/15 13:56:01;;;;;;;16.30;15.60;;;29.60;1.00;;;;;;2615862;54;20969;-82
2023/06/15 14:01:52;;;;;;;16.97;16.07;;;29.10;1.00;;;;;;2613531;54;20133;-76
2023/06/15 14:07:40;;;;;;;20.70;19.27;;;29.50;1.00;;;;;;2614434;54;20384;-81
2023/06/15 14:13:28;;;;;;;19.70;18.50;;;30.10;1.00;;;;;;2616347;54;20390;-83
2023/06/15 14:23:34;;;;;;;16.47;15.73;;;30.20;1.00;;;;;;2614294;54;20419;-76
2023/06/15 14:29:24;;;;;;;17.47;16.47;;;28.40;1.00;;;;;;2616533;54;20378;-82
2023/06/15 14:35:11;;;;;;;18.20;17.30;;;27.90;1.00;;;;;;2618302;54;20158;-81
2023/06/15 14:40:59;;;;;;;18.90;18.00;;;27.00;1.00;;;;;;2617578;54;20163;-83
2023/06/15 14:46:47;;;;;;;17.80;16.90;;;26.90;1.00;;;;;;2617937;54;20653;-84
2023/06/15 14:52:36;;;;;;;18.63;17.83;;;26.50;1.00;;;;;;2619742;54;20105;-84
2023/06/15 14:58:23;;;;;;;19.13;18.23;;;26.50;1.00;;;;;;2614098;54;20531;-76
2023/06/15 15:04:11;;;;;;;19.10;17.70;;;26.80;1.00;;;;;;2615131;54;20147;-77
2023/06/15 15:10:01;;;;;;;17.40;16.60;;;28.50;1.00;;;;;;2614785;54;20671;-83
2023/06/15 15:15:49;;;;;;;18.30;17.30;;;29.20;1.00;;;;;;2616408;54;20386;-82
2023/06/15 15:19:00;;;;;;;18.63;17.73;;;28.50;1.00;;;;;;2617039;54;20434;-84
2023/06/15 15:21:27;;;;;;;18.57;17.77;;;28.20;1.00;;;;;;2616740;54;20202;-83
2023/06/15 15:27:15;;;;;;;17.47;16.77;;;26.80;1.00;;;;;;2617306;54;20503;-82
2023/06/15 15:33:03;;;;;;;17.37;16.47;;;26.60;1.00;;;;;;2617728;54;20170;-81
2023/06/15 15:38:51;;;;;;;17.80;16.90;;;27.90;1.00;;;;;;2616878;54;20173;-81
2023/06/15 15:44:40;;;;;;;17.60;16.50;;;28.20;1.00;;;;;;2616157;54;20431;-83
2023/06/15 15:50:31;;;;;;;17.50;16.60;;;28.10;1.00;;;;;;2617114;54;20515;-82
2023/06/15 15:56:19;;;;;;;18.10;17.20;;;28.30;1.00;;;;;;2615233;54;20387;-83
2023/06/15 16:02:08;;;;;;;18.30;17.37;;;28.70;1.00;;;;;;2615084;54;20134;-81
2023/06/15 16:07:56;;;;;;;20.17;19.07;;;27.20;1.00;;;;;;2615024;54;20989;-82
2023/06/15 16:13:45;;;;;;;19.23;17.40;;;27.50;1.00;;;;;;2618247;39;20536;-85
2023/06/15 16:23:32;;;;;;;18.60;17.60;;;27.40;1.00;;;;;;2614891;31;20954;-74
2023/06/15 16:29:20;;;;;;;18.90;17.93;;;28.40;1.00;;;;;;2615089;54;20427;-75
2023/06/15 16:35:08;;;;;;;18.90;18.10;;;27.80;1.00;;;;;;2614634;54;20163;-75
2023/06/15 16:40:56;;;;;;;18.83;17.70;;;26.80;1.00;;;;;;2611817;54;20973;-74
2023/06/15 16:46:47;;;;;;;18.77;17.87;;;26.20;1.00;;;;;;2614436;54;20226;-74
2023/06/15 16:52:35;;;;;;;19.10;18.10;;;26.60;1.00;;;;;;2612334;54;20430;-75
2023/06/15 16:58:25;;;;;;;19.00;17.90;;;26.20;1.00;;;;;;2612422;54;20202;-75
2023/06/15 17:04:12;;;;;;;20.27;18.93;;;26.50;1.00;;;;;;2611883;54;20400;-75
2023/06/15 17:10:01;;;;;;;19.00;18.10;;;26.50;1.00;;;;;;2609784;54;20146;-75
2023/06/15 17:15:49;;;;;;;18.17;17.37;;;26.20;1.00;;;;;;2616752;39;20919;-84
2023/06/15 17:19:00;;;;;;;20.00;18.80;;;25.80;1.00;;;;;;2613301;47;20459;-84
2023/06/15 17:21:26;;;;;;;19.87;18.87;;;25.60;1.00;;;;;;2616242;39;20586;-85
2023/06/15 17:27:14;;;;;;;19.00;18.10;;;25.50;1.00;;;;;;2614418;54;20125;-84
2023/06/15 17:33:02;;;;;;;19.77;18.77;;;25.20;1.00;;;;;;2617808;54;20122;-84
2023/06/15 17:38:50;;;;;;;19.47;18.50;;;25.00;1.00;;;;;;2616915;39;20607;-84
2023/06/15 17:44:38;;;;;;;19.67;18.43;;;24.90;1.00;;;;;;2616893;54;20643;-85
2023/06/15 17:50:26;;;;;;;19.20;18.27;;;24.80;1.00;;;;;;2616271;54;20449;-85
2023/06/15 17:56:14;;;;;;;19.27;18.17;;;24.80;1.00;;;;;;2615022;39;20633;-75
2023/06/15 18:02:03;;;;;;;18.90;18.00;;;24.60;1.00;;;;;;2618685;39;20663;-84
2023/06/15 18:07:51;;;;;;;21.47;20.37;;;24.60;1.00;;;;;;2612724;39;20797;-81
2023/06/15 18:13:39;;;;;;;100.97;94.03;;;24.60;1.00;;;;;;2612884;54;20178;-81
2023/06/15 18:23:35;;;;;;;25.20;23.90;;;24.40;1.00;;;;;;2614273;54;20413;-81
2023/06/15 18:29:22;;;;;;;19.93;18.70;;;24.30;1.00;;;;;;2612930;54;20500;-75
2023/06/15 18:35:10;;;;;;;18.50;17.67;;;24.20;1.00;;;;;;2610421;54;20162;-75
2023/06/15 18:40:58;;;;;;;18.40;17.30;;;24.10;1.00;;;;;;2612099;54;20134;-76
2023/06/15 18:46:46;;;;;;;18.50;17.60;;;24.00;1.00;;;;;;2610209;54;20161;-76
2023/06/15 18:52:34;;;;;;;18.47;17.47;;;23.80;1.00;;;;;;2615154;54;20132;-76
2023/06/15 18:58:23;;;;;;;19.20;18.20;;;23.60;1.00;;;;;;2615103;54;20395;-76
2023/06/15 19:04:11;;;;;;;19.57;18.07;;;23.40;1.00;;;;;;2615407;54;20400;-76
2023/06/15 19:09:58;;;;;;;18.73;17.57;;;23.10;1.00;;;;;;2613214;54;20162;-75
2023/06/15 19:15:46;;;;;;;18.83;17.77;;;22.70;1.00;;;;;;2612668;54;20131;-75
2023/06/15 19:25:45;;;;;;;20.20;19.10;;;22.30;1.00;;;;;;2614798;54;20399;-76
2023/06/15 19:28:11;;;;;;;20.23;18.90;;;22.10;1.00;;;;;;2613069;47;20507;-75
2023/06/15 19:34:00;;;;;;;19.67;18.67;;;21.90;1.00;;;;;;2615827;54;20190;-76
2023/06/15 19:39:50;;;;;;;19.90;18.90;;;21.60;1.00;;;;;;2616517;54;20387;-76
2023/06/15 19:45:38;;;;;;;19.23;18.20;;;21.30;1.00;;;;;;2615859;54;20414;-76
2023/06/15 19:51:25;;;;;;;19.30;18.00;;;21.00;1.00;;;;;;2612526;54;20387;-75
2023/06/15 19:57:15;;;;;;;19.23;18.03;;;20.80;1.00;;;;;;2613495;54;20158;-76
2023/06/15 20:03:03;;;;;;;19.27;18.13;;;20.90;1.00;;;;;;2614963;39;20795;-76
2023/06/15 20:08:51;;;;;;;20.37;19.37;;;20.80;1.00;;;;;;2613271;54;20423;-76
2023/06/15 20:14:39;;;;;;;18.13;17.23;;;20.70;1.00;;;;;;2614538;54;21046;-75
2023/06/15 20:23:49;;;;;;;19.00;17.90;;;20.40;1.00;;;;;;2616604;54;20387;-76
2023/06/15 20:29:38;;;;;;;19.47;18.47;;;20.10;1.00;;;;;;2616642;54;20134;-76
2023/06/15 20:35:26;;;;;;;20.47;18.97;;;20.10;1.00;;;;;;2614303;46;20387;-75
2023/06/15 20:41:14;;;;;;;19.70;18.60;;;20.20;1.00;;;;;;2615623;54;20129;-75
2023/06/15 20:47:02;;;;;;;19.97;18.73;;;20.20;1.00;;;;;;2614416;54;20145;-75
2023/06/15 20:52:50;;;;;;;19.90;18.90;;;20.30;1.00;;;;;;2612813;54;20137;-75
2023/06/15 20:58:37;;;;;;;18.93;17.93;;;20.30;1.00;;;;;;2614881;54;20270;-76
2023/06/15 21:04:26;;;;;;;19.20;18.10;;;20.20;1.00;;;;;;2610785;54;20135;-75
2023/06/15 21:10:13;;;;;;;19.10;18.00;;;19.90;1.00;;;;;;2611609;54;20154;-75
2023/06/15 21:16:02;;;;;;;18.17;16.97;;;19.90;2.10;;;;;;2612141;54;20270;-75
2023/06/15 21:22:03;;;;;;;19.80;18.10;;;19.80;3.50;;;;;;2610668;52;20395;-85
2023/06/15 21:27:51;;;;;;;18.67;17.77;;;19.80;3.90;;;;;;2624458;54;20378;-85
2023/06/15 21:33:38;;;;;;;18.87;17.50;;;19.60;6.80;;;;;;2625846;54;20383;-84
2023/06/15 21:39:26;;;;;;;19.90;18.60;;;19.40;8.50;;;;;;2625872;54;20161;-84
2023/06/15 21:45:13;;;;;;;19.73;18.57;;;19.10;12.70;;;;;;2625091;54;20151;-85
2023/06/15 21:51:01;;;;;;;18.93;17.93;;;18.80;16.30;;;;;;2625957;54;20181;-85
2023/06/15 21:56:49;;;;;;;18.20;16.87;;;18.50;20.90;;;;;;2626608;54;20478;-86
2023/06/15 22:02:37;;;;;;;19.50;17.97;;;18.40;25.40;;;;;;2619824;54;20133;-76
2023/06/15 22:08:25;;;;;;;18.70;17.53;;;18.10;31.70;;;;;;2611730;39;20671;-77
2023/06/15 22:14:14;;;;;;;19.83;18.70;;;17.90;39.50;;;;;;2610804;54;20133;-77
2023/06/15 22:23:48;;;;;;;19.73;18.43;;;17.90;48.90;;;;;;2612141;54;20399;-77
2023/06/15 22:29:36;;;;;;;18.33;17.33;;;17.80;56.70;;;;;;2612027;54;20420;-77
2023/06/15 22:35:24;;;;;;;19.73;17.67;;;17.80;64.00;;;;;;2612353;39;20551;-77
2023/06/15 22:41:12;;;;;;;19.03;17.83;;;17.90;72.50;;;;;;2613181;54;20782;-77
2023/06/15 22:47:02;;;;;;;18.20;17.00;;;17.60;86.80;;;;;;2612055;54;20194;-77
2023/06/15 22:52:58;;;;;;;18.33;17.23;;;17.60;91.30;;;;;;2612496;39;20772;-75
2023/06/15 22:58:46;;;;;;;18.43;17.30;;;17.50;99.90;;;;;;2616873;54;20399;-83
2023/06/15 23:04:34;;;;;;;18.90;17.70;;;17.20;99.90;;;;;;2617536;54;20162;-83
2023/06/15 23:10:22;;;;;;;18.47;17.57;;;17.00;99.90;;;;;;2630606;54;20122;-86
2023/06/15 23:16:12;;;;;;;18.37;17.17;;;16.90;99.90;;;;;;2630667;54;20127;-86
2023/06/15 23:19:15;;;;;;;18.20;17.17;;;16.90;99.90;;;;;;2630208;54;20395;-86
2023/06/15 23:21:48;;;;;;;18.93;17.90;;;16.90;99.90;;;;;;2629723;54;20434;-87
2023/06/15 23:27:36;;;;;;;18.37;17.00;;;17.00;99.90;;;;;;2630071;54;20355;-86
2023/06/15 23:33:24;;;;;;;17.67;16.77;;;17.30;99.90;;;;;;2630711;54;20126;-85
2023/06/15 23:35:49;;;;;;;18.60;17.50;;;17.30;99.90;;;;;;2612545;39;21311;-76
2023/06/15 23:38:15;;;;;;;18.63;17.53;;;17.30;99.90;;;;;;2608025;54;20165;-73
2023/06/15 23:40:41;;;;;;;19.17;17.37;;;17.30;99.90;;;;;;2608455;54;20191;-74
2023/06/15 23:43:06;;;;;;;18.07;16.90;;;17.30;99.90;;;;;;2608538;54;20150;-79
2023/06/15 23:45:34;;;;;;;17.57;16.53;;;17.40;99.90;;;;;;2609413;54;20158;-78
2023/06/15 23:48:00;;;;;;;19.83;18.43;;;17.30;99.90;;;;;;2610209;54;20155;-78
2023/06/15 23:50:26;;;;;;;18.10;16.97;;;17.40;99.90;;;;;;2611141;39;20838;-78
2023/06/15 23:52:51;;;;;;;18.67;17.27;;;17.40;99.90;;;;;;2608598;54;20416;-74
2023/06/15 23:55:17;;;;;;;17.90;16.87;;;17.30;99.90;;;;;;2609640;47;20158;-75
2023/06/15 23:57:43;;;;;;;18.07;17.17;;;17.30;99.90;;;;;;2607488;54;20170;-75
